Time;durP1;ratioP1;P1;durP2;ratioP2;P2;SDS_P1;SDS_P2;PMS_P1;PMS_P2;Temp;Humidity;BMP_temperature;BMP_pressure;BME280_temperature;BME280_humidity;BME280_pressure;Samples;Min_cycle;Max_cycle;Signal;HPM_P1;HPM_P2
2021/08/16 00:11:02;;;;;;;10.80;5.25;;;20.60;91.80;;;;;;4994429;28;20052;-87
2021/08/16 00:20:31;;;;;;;10.13;5.90;;;20.70;91.90;;;;;;4994269;28;20053;-88
2021/08/16 00:26:23;;;;;;;10.52;5.63;;;20.80;91.90;;;;;;4994437;28;20045;-88
2021/08/16 00:32:13;;;;;;;11.13;6.00;;;20.70;91.70;;;;;;4994395;28;20025;-88
2021/08/16 00:38:02;;;;;;;10.57;6.05;;;20.60;91.40;;;;;;4995465;28;20037;-89
2021/08/16 00:43:54;;;;;;;11.90;6.63;;;20.50;91.40;;;;;;4994289;28;20044;-88
2021/08/16 00:49:44;;;;;;;12.70;6.75;;;20.40;91.30;;;;;;4993981;28;20069;-88
2021/08/16 00:55:36;;;;;;;13.98;6.60;;;20.30;91.30;;;;;;4994304;28;20041;-88
2021/08/16 01:01:25;;;;;;;10.73;6.00;;;20.30;91.30;;;;;;4994098;28;20101;-87
2021/08/16 01:07:18;;;;;;;11.18;5.93;;;20.20;91.20;;;;;;5000594;28;20141;-88
2021/08/16 01:13:09;;;;;;;13.02;6.18;;;20.10;91.10;;;;;;4999789;28;20026;-89
2021/08/16 01:22:46;;;;;;;14.43;6.70;;;19.20;90.80;;;;;;5019235;28;20053;-88
2021/08/16 01:28:38;;;;;;;11.20;6.22;;;19.90;91.10;;;;;;5016717;28;20072;-88
2021/08/16 01:34:30;;;;;;;12.38;6.38;;;19.90;91.10;;;;;;5016482;28;20041;-88
2021/08/16 01:40:19;;;;;;;13.38;6.72;;;19.80;91.00;;;;;;5016599;28;20057;-87
2021/08/16 01:46:11;;;;;;;11.25;6.25;;;19.70;91.00;;;;;;5016334;28;20033;-87
2021/08/16 01:52:00;;;;;;;12.18;6.63;;;19.60;90.90;;;;;;5016493;28;20190;-87
2021/08/16 01:57:54;;;;;;;12.48;6.95;;;19.60;91.10;;;;;;5016622;28;20040;-88
2021/08/16 02:04:15;;;;;;;13.30;6.68;;;19.60;91.10;;;;;;5015709;28;20153;-87
2021/08/16 02:10:05;;;;;;;12.60;7.35;;;19.50;90.90;;;;;;5015770;28;20084;-87
2021/08/16 02:15:54;;;;;;;13.85;7.75;;;19.50;91.20;;;;;;5015778;28;20064;-87
2021/08/16 02:25:45;;;;;;;13.35;7.40;;;19.70;91.60;;;;;;4996108;28;20053;-87
2021/08/16 02:31:38;;;;;;;12.73;7.43;;;19.80;91.40;;;;;;5017315;28;20032;-87
2021/08/16 02:37:28;;;;;;;14.57;8.02;;;19.70;91.20;;;;;;4999278;28;20033;-87
2021/08/16 02:43:20;;;;;;;14.90;8.68;;;19.60;91.00;;;;;;5000834;28;20093;-87
2021/08/16 02:49:11;;;;;;;14.00;8.07;;;19.60;90.90;;;;;;4995991;28;20037;-87
2021/08/16 02:55:01;;;;;;;17.67;11.05;;;19.50;90.80;;;;;;4995338;28;20041;-87
2021/08/16 03:01:00;;;;;;;17.73;10.65;;;19.50;90.90;;;;;;4995297;28;20041;-88
2021/08/16 03:06:50;;;;;;;15.95;9.98;;;19.40;90.90;;;;;;4994840;28;20034;-87
2021/08/16 03:12:42;;;;;;;15.70;9.48;;;19.50;91.10;;;;;;4994806;28;20037;-87
2021/08/16 03:18:35;;;;;;;14.43;9.27;;;19.50;91.10;;;;;;4994755;28;20367;-87
2021/08/16 03:28:26;;;;;;;13.30;8.57;;;19.60;91.40;;;;;;4995130;28;20076;-89
2021/08/16 03:34:15;;;;;;;14.13;8.27;;;19.70;91.40;;;;;;4995473;28;20034;-90
2021/08/16 03:40:04;;;;;;;13.82;8.07;;;19.70;91.40;;;;;;4995110;28;20037;-90
2021/08/16 03:45:54;;;;;;;16.25;8.52;;;19.80;91.30;;;;;;4995303;28;20044;-90
2021/08/16 03:51:44;;;;;;;13.38;8.30;;;19.80;91.30;;;;;;5011601;28;20553;-89
2021/08/16 03:57:33;;;;;;;16.08;10.50;;;19.90;91.40;;;;;;4996715;28;20037;-90
2021/08/16 04:03:26;;;;;;;15.77;8.40;;;20.00;91.50;;;;;;4995001;28;20134;-88
2021/08/16 04:09:15;;;;;;;19.20;12.63;;;20.10;91.50;;;;;;4994958;28;20033;-89
2021/08/16 04:15:08;;;;;;;15.27;8.13;;;20.10;91.40;;;;;;4995039;28;20046;-90
2021/08/16 04:20:58;;;;;;;13.35;8.77;;;20.10;91.20;;;;;;4995020;28;20085;-90
2021/08/16 04:30:43;;;;;;;14.32;9.65;;;20.30;91.40;;;;;;4995091;28;20038;-90
2021/08/16 04:36:32;;;;;;;14.52;8.32;;;20.40;92.00;;;;;;4995098;28;20114;-90
2021/08/16 04:42:20;;;;;;;15.15;8.40;;;20.80;92.30;;;;;;4998587;28;20069;-90
2021/08/16 04:48:09;;;;;;;13.18;7.93;;;21.20;92.20;;;;;;4998696;28;20025;-91
2021/08/16 04:53:58;;;;;;;11.95;7.38;;;21.40;91.90;;;;;;4998751;28;20030;-91
2021/08/16 04:59:47;;;;;;;12.52;7.80;;;21.50;91.90;;;;;;4998676;28;20040;-90
2021/08/16 05:05:35;;;;;;;17.00;7.93;;;;;;;;;;4998326;28;20041;-89
2021/08/16 05:11:06;;;;;;;14.85;7.22;;;;;;;;;;4997009;28;20030;-88
2021/08/16 05:16:37;;;;;;;14.07;8.15;;;;;;;;;;4997092;28;20061;-86
2021/08/16 05:22:09;;;;;;;14.60;8.07;;;;;;;;;;4996739;28;20137;-84
2021/08/16 05:27:40;;;;;;;15.57;8.82;;;;;;;;;;5004815;28;20478;-84
2021/08/16 05:33:10;;;;;;;17.17;9.65;;;;;;;;;;4996797;28;20033;-85
2021/08/16 05:38:40;;;;;;;14.02;7.57;;;;;;;;;;4996730;28;20037;-85
2021/08/16 05:44:13;;;;;;;13.90;7.38;;;;;;;;;;4996654;28;20072;-84
2021/08/16 05:49:43;;;;;;;14.45;8.43;;;;;;;;;;4996087;28;20164;-86
2021/08/16 05:55:14;;;;;;;13.90;8.55;;;;;;;;;;4996542;28;20040;-85
2021/08/16 06:00:44;;;;;;;13.95;8.55;;;;;;;;;;4996175;28;20076;-83
2021/08/16 06:06:15;;;;;;;14.77;8.50;;;;;;;;;;4995956;28;20121;-85
2021/08/16 06:11:45;;;;;;;14.32;7.85;;;;;;;;;;4996146;28;20382;-86
2021/08/16 06:17:16;;;;;;;15.40;8.90;;;;;;;;;;4996073;28;20076;-86
2021/08/16 06:22:47;;;;;;;15.88;8.93;;;;;;;;;;4995640;28;20076;-86
2021/08/16 06:28:18;;;;;;;16.30;9.80;;;;;;;;;;5000515;28;20403;-85
2021/08/16 06:33:48;;;;;;;16.70;8.77;;;;;;;;;;4995458;28;20085;-83
2021/08/16 06:39:18;;;;;;;34.78;14.35;;;;;;;;;;4995333;28;20033;-84
2021/08/16 06:44:49;;;;;;;27.20;11.63;;;;;;;;;;4995277;28;20100;-84
2021/08/16 06:50:19;;;;;;;30.02;13.38;;;;;;;;;;4995203;28;20064;-86
2021/08/16 06:55:50;;;;;;;24.50;11.10;;;;;;;;;;4995362;28;20042;-84
2021/08/16 07:01:21;;;;;;;24.73;10.57;;;;;;;;;;4994253;28;20088;-85
2021/08/16 07:06:52;;;;;;;25.85;12.18;;;23.60;91.40;;;;;;4994844;28;20057;-85
2021/08/16 07:12:41;;;;;;;14.10;6.63;;;23.70;91.30;;;;;;4994870;28;20030;-83
2021/08/16 07:18:29;;;;;;;20.13;8.20;;;23.70;90.90;;;;;;4995005;28;20186;-84
2021/08/16 07:24:19;;;;;;;9.90;4.70;;;23.40;90.50;;;;;;4994657;28;20483;-84
2021/08/16 07:33:36;;;;;;;12.32;6.15;;;23.10;90.60;;;;;;4996879;28;20085;-84
2021/08/16 07:39:25;;;;;;;9.73;4.55;;;23.00;91.70;;;;;;5002242;28;20065;-86
2021/08/16 07:45:14;;;;;;;13.75;6.03;;;23.30;92.10;;;;;;4994559;28;20037;-85
2021/08/16 07:51:03;;;;;;;13.60;6.18;;;23.50;91.60;;;;;;4994370;28;20085;-86
2021/08/16 07:56:52;;;;;;;9.98;4.80;;;23.70;91.90;;;;;;4994507;28;20034;-84
2021/08/16 08:02:43;;;;;;;10.73;4.93;;;24.30;91.30;;;;;;4994392;28;20076;-86
2021/08/16 08:08:32;;;;;;;7.78;3.83;;;24.40;91.60;;;;;;4994621;28;20033;-90
2021/08/16 08:14:24;;;;;;;6.47;3.30;;;24.60;91.20;;;;;;4997379;28;20497;-87
2021/08/16 08:20:14;;;;;;;5.95;2.85;;;24.80;91.90;;;;;;4998241;28;20108;-88
2021/08/16 08:26:03;;;;;;;10.23;3.83;;;25.80;91.90;;;;;;4998173;28;20040;-87
2021/08/16 08:31:54;;;;;;;7.78;3.42;;;26.80;90.40;;;;;;5006063;28;20062;-88
2021/08/16 08:37:46;;;;;;;4.90;2.63;;;27.00;90.30;;;;;;4998355;28;20582;-88
2021/08/16 08:43:36;;;;;;;5.85;2.78;;;27.20;88.40;;;;;;4998021;28;20134;-88
2021/08/16 08:49:24;;;;;;;6.72;3.00;;;26.80;87.40;;;;;;4997951;28;20065;-89
2021/08/16 08:55:14;;;;;;;8.50;3.22;;;26.70;88.50;;;;;;4997836;28;20495;-90
2021/08/16 09:01:03;;;;;;;5.53;2.50;;;26.10;87.70;;;;;;4997496;28;20207;-88
2021/08/16 09:06:52;;;;;;;7.65;3.20;;;25.80;89.10;;;;;;4998923;28;20038;-88
2021/08/16 09:12:42;;;;;;;10.13;4.30;;;25.40;89.60;;;;;;4997357;28;20367;-88
2021/08/16 09:18:30;;;;;;;10.40;4.20;;;25.20;90.60;;;;;;4997814;28;20092;-88
2021/08/16 09:24:34;;;;;;;11.25;4.65;;;25.30;91.30;;;;;;4996511;28;20391;-86
2021/08/16 09:30:33;;;;;;;9.27;4.32;;;25.60;91.20;;;;;;4997132;28;20065;-86
2021/08/16 09:36:32;;;;;;;10.80;4.53;;;25.90;91.10;;;;;;4997004;28;20058;-86
2021/08/16 09:42:21;;;;;;;11.07;3.80;;;26.10;90.60;;;;;;4996618;28;20045;-86
2021/08/16 09:48:20;;;;;;;10.20;4.32;;;26.10;91.10;;;;;;4996949;28;20120;-86
2021/08/16 09:54:10;;;;;;;10.05;3.58;;;26.30;90.80;;;;;;4996492;28;20077;-86
2021/08/16 09:59:58;;;;;;;10.95;4.50;;;26.80;90.30;;;;;;4997632;28;20040;-88
2021/08/16 10:05:48;;;;;;;11.13;4.65;;;27.40;90.80;;;;;;4998237;28;20394;-86
2021/08/16 10:11:38;;;;;;;12.07;3.97;;;28.10;90.90;;;;;;4996350;28;20027;-84
2021/08/16 10:17:41;;;;;;;11.65;5.40;;;28.80;90.20;;;;;;4997601;28;20033;-86
2021/08/16 10:23:29;;;;;;;15.98;5.65;;;28.60;86.80;;;;;;4996243;28;20049;-85
2021/08/16 10:29:19;;;;;;;11.32;4.95;;;28.30;88.70;;;;;;4995846;28;20037;-85
2021/08/16 10:39:04;;;;;;;12.38;4.47;;;28.80;88.40;;;;;;4995746;28;20134;-85
2021/08/16 10:44:59;;;;;;;14.27;5.25;;;29.90;89.50;;;;;;4995580;28;20057;-85
2021/08/16 10:50:48;;;;;;;13.63;5.60;;;31.10;86.90;;;;;;4995560;28;20046;-89
2021/08/16 10:56:37;;;;;;;13.40;4.80;;;30.60;84.30;;;;;;4995704;28;20036;-88
2021/08/16 11:02:28;;;;;;;5.07;2.55;;;30.00;82.10;;;;;;4995304;28;20041;-86
2021/08/16 11:08:17;;;;;;;13.05;4.82;;;29.40;83.70;;;;;;4995624;28;20041;-89
2021/08/16 11:14:06;;;;;;;10.85;3.88;;;30.70;87.40;;;;;;4995566;28;20029;-90
2021/08/16 11:20:15;;;;;;;6.80;3.13;;;31.00;84.60;;;;;;4994604;28;20434;-86
2021/08/16 11:26:05;;;;;;;5.90;2.53;;;31.80;83.80;;;;;;4994591;28;20162;-85
2021/08/16 11:32:01;;;;;;;4.55;1.98;;;33.20;83.80;;;;;;4994780;28;20386;-84
2021/08/16 11:41:57;;;;;;;8.05;3.45;;;31.60;78.10;;;;;;4994612;28;20077;-84
2021/08/16 11:47:33;;;;;;;7.13;2.80;;;30.10;79.30;;;;;;4993869;28;19949;-86
2021/08/16 11:53:24;;;;;;;6.07;2.60;;;29.40;83.40;;;;;;4994580;28;20095;-87
2021/08/16 11:59:14;;;;;;;6.35;2.35;;;31.50;85.30;;;;;;4994481;28;20030;-85
2021/08/16 12:05:03;;;;;;;6.18;2.47;;;33.20;80.30;;;;;;4994470;28;20450;-86
2021/08/16 12:10:55;;;;;;;4.82;2.22;;;35.10;81.90;;;;;;4994684;28;20102;-88
2021/08/16 12:16:52;;;;;;;4.82;2.30;;;36.40;71.30;;;;;;4994071;28;20045;-84
2021/08/16 12:22:57;;;;;;;8.70;2.65;;;37.60;69.90;;;;;;5005097;28;20040;-86
2021/08/16 12:28:46;;;;;;;2.97;1.63;;;36.50;65.50;;;;;;5006991;28;20110;-85
2021/08/16 12:34:34;;;;;;;4.57;2.15;;;35.80;65.70;;;;;;4994406;28;20057;-85
2021/08/16 12:44:24;;;;;;;3.90;1.88;;;35.30;64.50;;;;;;4994083;28;20071;-85
2021/08/16 12:50:15;;;;;;;3.70;2.10;;;36.40;63.80;;;;;;4994001;28;20061;-85
2021/08/16 12:56:09;;;;;;;6.45;2.40;;;38.60;67.20;;;;;;4993849;28;20540;-84
2021/08/16 13:01:58;;;;;;;3.33;1.65;;;39.70;60.60;;;;;;4997193;28;20454;-84
2021/08/16 13:07:47;;;;;;;5.22;2.35;;;37.40;56.40;;;;;;4997375;28;20041;-84
2021/08/16 13:13:35;;;;;;;6.88;2.40;;;34.90;60.10;;;;;;4997290;28;20134;-84
2021/08/16 13:19:23;;;;;;;5.32;2.45;;;33.50;64.00;;;;;;4996924;28;20042;-84
2021/08/16 13:25:12;;;;;;;3.75;1.83;;;35.90;64.90;;;;;;4997190;28;20040;-84
2021/08/16 13:31:02;;;;;;;6.50;2.30;;;34.70;63.10;;;;;;4997192;28;20115;-82
2021/08/16 13:36:53;;;;;;;5.30;2.30;;;39.00;63.90;;;;;;4996547;28;20077;-84
2021/08/16 13:46:32;;;;;;;5.05;2.25;;;43.60;52.80;;;;;;4997073;28;20044;-86
2021/08/16 13:52:23;;;;;;;4.00;2.05;;;41.00;48.90;;;;;;4996583;28;20095;-87
2021/08/16 13:58:13;;;;;;;3.85;2.10;;;37.20;53.40;;;;;;4996520;28;20033;-84
2021/08/16 14:04:01;;;;;;;6.35;2.50;;;37.90;55.30;;;;;;4996099;28;20105;-83
2021/08/16 14:09:50;;;;;;;2.47;1.83;;;40.90;55.60;;;;;;4996236;28;20041;-83
2021/08/16 14:15:38;;;;;;;5.28;2.35;;;42.70;50.60;;;;;;4996200;28;20029;-83
2021/08/16 14:21:31;;;;;;;4.53;2.10;;;43.60;51.40;;;;;;4996399;28;20057;-86
2021/08/16 14:27:21;;;;;;;6.20;1.95;;;44.30;50.80;;;;;;4996028;28;20050;-86
2021/08/16 14:33:12;;;;;;;4.28;2.03;;;42.10;47.90;;;;;;4995594;28;20037;-83
2021/08/16 14:39:00;;;;;;;2.90;1.45;;;39.40;51.90;;;;;;4995485;28;20121;-84
2021/08/16 14:48:21;;;;;;;3.10;1.73;;;36.40;56.00;;;;;;4995373;28;19917;-83
2021/08/16 14:54:13;;;;;;;4.40;2.08;;;34.40;57.90;;;;;;4995215;28;20529;-84
2021/08/16 15:00:02;;;;;;;6.78;2.70;;;33.00;59.60;;;;;;4995328;28;20076;-83
2021/08/16 15:06:04;;;;;;;3.08;1.55;;;31.80;61.10;;;;;;4995232;28;20041;-83
2021/08/16 15:11:53;;;;;;;7.18;2.38;;;30.60;64.00;;;;;;4994894;28;20033;-85
2021/08/16 15:17:44;;;;;;;5.97;2.45;;;30.80;68.10;;;;;;4994768;28;20164;-85
2021/08/16 15:23:34;;;;;;;4.35;1.83;;;31.20;65.30;;;;;;4994025;28;20074;-84
2021/08/16 15:29:33;;;;;;;2.47;1.48;;;30.00;63.60;;;;;;4995114;28;20037;-85
2021/08/16 15:35:23;;;;;;;5.25;2.20;;;29.40;67.10;;;;;;4994422;28;20084;-85
2021/08/16 15:41:12;;;;;;;6.90;2.33;;;29.30;66.80;;;;;;4994281;28;20508;-84
2021/08/16 15:51:03;;;;;;;5.03;1.83;;;31.00;66.00;;;;;;4994501;28;20053;-85
2021/08/16 15:56:55;;;;;;;3.28;1.55;;;30.80;64.00;;;;;;4994557;28;20049;-85
2021/08/16 16:02:44;;;;;;;5.28;2.20;;;30.00;63.20;;;;;;4994089;28;20129;-84
2021/08/16 16:08:34;;;;;;;4.15;2.20;;;29.20;64.50;;;;;;4994027;28;20471;-85
2021/08/16 16:14:25;;;;;;;5.25;2.30;;;29.30;67.00;;;;;;4994343;28;20537;-85
2021/08/16 16:20:14;;;;;;;7.13;2.70;;;29.40;66.40;;;;;;4994191;28;20556;-84
2021/08/16 16:26:03;;;;;;;5.63;2.22;;;28.70;66.80;;;;;;4994169;28;20158;-85
2021/08/16 16:31:52;;;;;;;5.40;2.10;;;28.20;68.00;;;;;;4995246;28;20034;-85
2021/08/16 16:37:41;;;;;;;6.50;2.28;;;27.80;67.90;;;;;;4997984;28;20030;-84
2021/08/16 16:43:29;;;;;;;4.50;1.98;;;27.50;69.20;;;;;;4999440;28;20037;-86
2021/08/16 16:53:18;;;;;;;9.93;2.60;;;26.80;70.60;;;;;;4997734;28;20061;-84
2021/08/16 16:59:08;;;;;;;7.00;2.50;;;26.40;72.10;;;;;;4997268;28;20028;-85
2021/08/16 17:04:57;;;;;;;5.75;2.08;;;26.00;72.30;;;;;;4997538;28;20038;-86
2021/08/16 17:10:45;;;;;;;5.47;2.38;;;25.80;72.10;;;;;;5004178;28;20110;-86
2021/08/16 17:16:34;;;;;;;2.42;1.42;;;25.60;72.70;;;;;;5011879;28;20041;-86
2021/08/16 17:22:23;;;;;;;5.20;1.88;;;25.40;73.60;;;;;;4997466;28;20386;-86
2021/08/16 17:28:17;;;;;;;6.63;2.30;;;25.40;73.80;;;;;;4996965;28;20493;-86
2021/08/16 17:34:06;;;;;;;6.70;2.03;;;25.20;74.40;;;;;;4996782;28;20077;-86
2021/08/16 17:39:54;;;;;;;5.93;2.47;;;25.20;74.40;;;;;;4996810;28;20395;-85
2021/08/16 17:45:43;;;;;;;6.22;1.98;;;25.10;74.60;;;;;;4996142;28;20038;-86
2021/08/16 17:55:27;;;;;;;5.00;2.08;;;24.60;75.00;;;;;;4996811;28;20049;-87
2021/08/16 18:01:16;;;;;;;6.13;2.60;;;24.20;75.30;;;;;;4996427;28;20486;-87
2021/08/16 18:07:04;;;;;;;5.65;2.13;;;23.90;76.60;;;;;;4996740;28;20033;-86
2021/08/16 18:12:53;;;;;;;4.43;2.13;;;23.70;76.30;;;;;;4997971;28;20053;-95
2021/08/16 18:18:41;;;;;;;5.22;2.17;;;22.70;69.50;;;;;;4997777;28;20037;-85
2021/08/16 18:24:32;;;;;;;6.70;2.60;;;21.40;71.00;;;;;;4996462;28;20033;-87
2021/08/16 18:30:20;;;;;;;7.90;3.25;;;20.30;75.80;;;;;;4996347;28;20045;-87
2021/08/16 18:36:10;;;;;;;8.88;3.08;;;19.80;80.00;;;;;;4996234;28;20506;-88
2021/08/16 18:42:01;;;;;;;7.82;2.70;;;19.60;82.50;;;;;;4996298;28;20041;-88
2021/08/16 18:47:50;;;;;;;6.72;2.70;;;19.60;83.60;;;;;;4995963;28;20072;-89
2021/08/16 18:57:34;;;;;;;4.38;2.10;;;19.50;85.10;;;;;;4994996;28;20545;-88
2021/08/16 19:03:23;;;;;;;5.20;2.05;;;19.50;86.80;;;;;;4995837;28;20553;-87
2021/08/16 19:09:11;;;;;;;5.20;2.33;;;19.50;87.60;;;;;;4995468;28;20108;-84
2021/08/16 19:15:00;;;;;;;10.63;2.88;;;19.40;86.70;;;;;;4997280;28;20033;-86
2021/08/16 19:20:48;;;;;;;5.32;2.40;;;19.00;85.00;;;;;;4997575;28;20029;-85
2021/08/16 19:26:37;;;;;;;4.00;2.30;;;18.50;85.80;;;;;;4995678;28;20490;-85
2021/08/16 19:32:26;;;;;;;7.97;3.08;;;18.20;87.60;;;;;;4994870;28;20083;-85
2021/08/16 19:38:15;;;;;;;5.43;2.38;;;18.10;88.50;;;;;;4995136;28;20386;-86
2021/08/16 19:44:05;;;;;;;6.65;3.03;;;17.60;86.40;;;;;;4995104;28;20520;-85
2021/08/16 19:49:54;;;;;;;7.75;3.40;;;17.00;86.90;;;;;;4994769;28;20529;-85
2021/08/16 19:59:36;;;;;;;8.07;3.47;;;16.40;88.60;;;;;;4994716;28;20037;-85
2021/08/16 20:05:24;;;;;;;6.22;2.72;;;16.20;89.20;;;;;;4994918;28;20387;-85
2021/08/16 20:11:16;;;;;;;11.43;4.78;;;16.00;89.50;;;;;;4999528;28;20073;-87
2021/08/16 20:17:04;;;;;;;9.88;4.55;;;15.80;89.80;;;;;;5000278;28;20045;-86
2021/08/16 20:22:53;;;;;;;12.48;4.90;;;15.70;90.10;;;;;;4999007;28;20045;-85
2021/08/16 20:28:42;;;;;;;10.48;4.68;;;15.60;90.20;;;;;;5000045;28;20121;-87
2021/08/16 20:34:31;;;;;;;14.07;6.40;;;15.50;90.40;;;;;;4999455;28;20382;-86
2021/08/16 20:40:20;;;;;;;14.90;6.72;;;15.40;90.60;;;;;;4998733;28;20391;-85
2021/08/16 20:46:08;;;;;;;16.00;6.97;;;15.30;90.60;;;;;;4997956;28;20033;-86
2021/08/16 20:51:57;;;;;;;15.07;6.82;;;15.30;90.70;;;;;;4997728;28;20497;-85
2021/08/16 21:01:39;;;;;;;15.32;8.05;;;15.20;91.00;;;;;;4997755;28;20045;-85
2021/08/16 21:07:28;;;;;;;13.05;5.97;;;15.20;91.40;;;;;;4997796;28;20038;-84
2021/08/16 21:13:16;;;;;;;12.35;5.22;;;15.20;91.20;;;;;;4997776;28;20096;-84
2021/08/16 21:19:05;;;;;;;19.95;8.52;;;15.10;91.20;;;;;;4997431;28;20509;-85
2021/08/16 21:24:53;;;;;;;21.92;8.15;;;15.00;91.30;;;;;;4997444;28;20671;-85
2021/08/16 21:30:43;;;;;;;13.75;6.28;;;15.00;91.30;;;;;;4997842;28;20030;-85
2021/08/16 21:36:32;;;;;;;26.33;9.38;;;15.00;91.40;;;;;;4997336;28;20081;-85
2021/08/16 21:42:21;;;;;;;23.55;9.27;;;14.90;91.40;;;;;;4996518;28;20434;-86
2021/08/16 21:48:10;;;;;;;24.58;8.98;;;14.80;91.50;;;;;;4996785;28;20430;-86
2021/08/16 21:53:59;;;;;;;12.73;4.60;;;14.80;91.50;;;;;;4996475;28;20033;-86
2021/08/16 22:03:42;;;;;;;20.35;8.20;;;14.70;91.70;;;;;;4999247;28;20061;-86
2021/08/16 22:09:32;;;;;;;20.77;8.25;;;14.70;91.80;;;;;;4998621;28;20030;-86
2021/08/16 22:15:20;;;;;;;22.25;8.80;;;14.60;91.70;;;;;;4996019;28;20041;-85
2021/08/16 22:21:09;;;;;;;25.42;9.10;;;14.60;91.80;;;;;;4996017;28;20545;-86
2021/08/16 22:27:01;;;;;;;22.20;8.15;;;14.60;91.90;;;;;;4995916;28;20037;-86
2021/08/16 22:32:49;;;;;;;19.38;7.45;;;14.60;92.00;;;;;;4995704;28;20041;-85
2021/08/16 22:38:38;;;;;;;32.15;10.00;;;14.60;91.90;;;;;;4995689;28;20395;-85
2021/08/16 22:44:26;;;;;;;22.17;6.50;;;14.70;92.10;;;;;;4995710;28;20088;-86
2021/08/16 22:50:15;;;;;;;24.13;8.70;;;14.70;92.00;;;;;;4995620;28;20096;-86
2021/08/16 22:56:03;;;;;;;23.77;7.63;;;14.70;92.00;;;;;;4995459;28;20599;-86
2021/08/16 23:05:47;;;;;;;25.10;8.45;;;14.50;92.00;;;;;;4995164;28;20522;-85
2021/08/16 23:11:35;;;;;;;20.83;7.15;;;14.60;92.10;;;;;;4995502;28;20032;-85
2021/08/16 23:17:25;;;;;;;24.42;8.15;;;14.50;92.00;;;;;;4994781;28;20034;-85
2021/08/16 23:23:13;;;;;;;21.23;7.50;;;14.50;92.20;;;;;;4994812;28;20048;-85
2021/08/16 23:29:03;;;;;;;19.20;7.05;;;14.60;92.30;;;;;;4994867;28;20475;-86
2021/08/16 23:34:53;;;;;;;17.30;7.00;;;14.60;92.30;;;;;;4994540;28;20065;-86
2021/08/16 23:40:42;;;;;;;20.42;6.75;;;14.60;92.20;;;;;;4994587;28;20080;-86
2021/08/16 23:46:31;;;;;;;31.95;6.75;;;14.60;92.00;;;;;;4994714;28;20088;-86
2021/08/16 23:52:20;;;;;;;13.90;4.15;;;14.30;91.70;;;;;;4994524;28;20037;-86
2021/08/16 23:58:09;;;;;;;25.65;5.75;;;14.20;91.80;;;;;;4994550;28;20057;-85
